Time;durP1;ratioP1;P1;durP2;ratioP2;P2;SDS_P1;SDS_P2;PMS_P1;PMS_P2;Temp;Humidity;BMP_temperature;BMP_pressure;BME280_temperature;BME280_humidity;BME280_pressure;Samples;Min_cycle;Max_cycle;Signal;HPM_P1;HPM_P2
2023/09/14 00:00:52;;;;;;;17.85;3.65;;;10.40;99.90;;;;;;4998403;28;20129;-77
2023/09/14 00:03:18;;;;;;;13.27;3.42;;;10.40;99.90;;;;;;5016051;28;20042;-77
2023/09/14 00:05:47;;;;;;;14.00;3.90;;;10.30;99.90;;;;;;5016223;28;20085;-77
2023/09/14 00:08:13;;;;;;;12.32;3.40;;;10.30;99.90;;;;;;5014858;28;20621;-78
2023/09/14 00:10:40;;;;;;;12.93;3.10;;;10.30;99.90;;;;;;5014593;28;20041;-77
2023/09/14 00:13:07;;;;;;;16.13;3.50;;;10.30;99.90;;;;;;5016046;28;20046;-77
2023/09/14 00:15:33;;;;;;;9.38;2.28;;;10.30;99.90;;;;;;4998849;28;20187;-77
2023/09/14 00:17:59;;;;;;;8.83;2.50;;;10.20;99.90;;;;;;5015945;28;20476;-75
2023/09/14 00:20:26;;;;;;;12.73;2.80;;;10.20;99.90;;;;;;5016532;28;20128;-76
2023/09/14 00:22:55;;;;;;;10.02;2.35;;;10.20;99.90;;;;;;5015790;28;20042;-75
2023/09/14 00:25:21;;;;;;;13.88;2.90;;;10.30;99.90;;;;;;5015829;28;20042;-72
2023/09/14 00:27:51;;;;;;;10.35;2.50;;;10.20;99.90;;;;;;5014902;28;20046;-72
2023/09/14 00:30:19;;;;;;;7.68;2.42;;;10.20;99.90;;;;;;5015897;28;20045;-73
2023/09/14 00:32:47;;;;;;;10.50;2.97;;;10.20;99.90;;;;;;5014752;28;20041;-72
2023/09/14 00:35:14;;;;;;;27.90;7.50;;;10.20;99.90;;;;;;5014861;28;20103;-72
2023/09/14 00:37:41;;;;;;;24.45;6.90;;;10.20;99.90;;;;;;4998608;28;20045;-72
2023/09/14 00:40:10;;;;;;;18.58;5.40;;;10.20;99.90;;;;;;5014977;28;20050;-72
2023/09/14 00:42:41;;;;;;;18.13;4.57;;;10.10;99.90;;;;;;5015076;28;20125;-72
2023/09/14 00:45:08;;;;;;;16.35;4.57;;;10.10;99.90;;;;;;5014606;28;20042;-72
2023/09/14 00:47:38;;;;;;;13.50;4.18;;;10.00;99.90;;;;;;5015651;28;20057;-72
2023/09/14 00:50:06;;;;;;;17.45;4.70;;;10.00;99.90;;;;;;5014170;28;20046;-72
2023/09/14 00:52:36;;;;;;;;;;;10.00;99.90;;;;;;5015933;28;20045;-71
2023/09/14 00:55:05;;;;;;;14.88;3.60;;;10.00;99.90;;;;;;5015457;28;20316;-73
2023/09/14 00:57:32;;;;;;;10.73;2.83;;;10.00;99.90;;;;;;5015488;28;20076;-73
2023/09/14 00:59:58;;;;;;;12.90;2.88;;;10.00;99.90;;;;;;5014382;28;20057;-77
2023/09/14 01:02:26;;;;;;;14.40;3.17;;;10.00;99.90;;;;;;5015572;28;20056;-72
2023/09/14 01:04:53;;;;;;;14.40;3.10;;;9.90;99.90;;;;;;5014106;28;20049;-72
2023/09/14 01:07:19;;;;;;;15.70;3.63;;;9.90;99.90;;;;;;5015802;28;20042;-72
2023/09/14 01:09:44;;;;;;;11.75;2.78;;;10.00;99.90;;;;;;5014996;28;20053;-71
2023/09/14 01:12:10;;;;;;;18.17;3.40;;;9.90;99.90;;;;;;5014420;28;20056;-72
2023/09/14 01:14:59;;;;;;;14.60;3.60;;;9.90;99.90;;;;;;5014564;28;20033;-73
2023/09/14 01:17:41;;;;;;;10.82;3.42;;;9.90;99.90;;;;;;5005244;28;20050;-72
2023/09/14 01:20:26;;;;;;;15.90;3.33;;;9.90;99.90;;;;;;5013988;28;20104;-71
2023/09/14 01:22:54;;;;;;;13.10;3.63;;;9.80;99.90;;;;;;5014993;28;20049;-72
2023/09/14 01:25:30;;;;;;;16.35;3.42;;;9.80;99.90;;;;;;5015108;28;20494;-73
2023/09/14 01:28:07;;;;;;;17.52;3.55;;;9.80;99.90;;;;;;5015189;28;20355;-72
2023/09/14 01:30:33;;;;;;;16.05;3.67;;;9.80;99.90;;;;;;5014684;28;20045;-71
2023/09/14 01:32:59;;;;;;;9.73;2.95;;;9.80;99.90;;;;;;4997475;28;20384;-72
2023/09/14 01:35:27;;;;;;;16.60;3.15;;;9.80;99.90;;;;;;5013502;28;20034;-72
2023/09/14 01:37:55;;;;;;;12.23;2.88;;;9.80;99.90;;;;;;5014532;28;20504;-73
2023/09/14 01:40:22;;;;;;;15.57;3.28;;;9.70;99.90;;;;;;5014782;28;20056;-73
2023/09/14 01:42:50;;;;;;;12.55;3.35;;;9.70;99.90;;;;;;4997042;28;20042;-73
2023/09/14 01:45:16;;;;;;;11.40;2.78;;;9.60;99.90;;;;;;5012772;28;20067;-72
2023/09/14 01:47:42;;;;;;;9.63;3.63;;;9.70;99.90;;;;;;4997517;28;20042;-73
2023/09/14 01:50:08;;;;;;;12.05;3.45;;;9.60;99.90;;;;;;5014335;28;20052;-72
2023/09/14 01:52:34;;;;;;;12.77;2.78;;;;;;;;;;5018114;28;20048;-70
2023/09/14 01:55:00;;;;;;;14.35;3.17;;;9.60;99.90;;;;;;5018141;28;20063;-71
2023/09/14 01:57:26;;;;;;;9.55;2.88;;;9.60;99.90;;;;;;5015097;28;20371;-71
2023/09/14 01:59:51;;;;;;;10.07;3.15;;;9.60;99.90;;;;;;5013675;28;20061;-72
2023/09/14 02:02:17;;;;;;;14.40;3.03;;;10.10;99.90;;;;;;5015335;28;20049;-72
2023/09/14 02:04:43;;;;;;;10.35;3.13;;;9.50;99.90;;;;;;5014516;28;20132;-72
2023/09/14 02:07:09;;;;;;;13.63;4.10;;;;;;;;;;5015119;28;20046;-73
2023/09/14 02:09:34;;;;;;;15.45;3.92;;;9.40;99.90;;;;;;4997147;28;20045;-72
2023/09/14 02:12:00;;;;;;;19.85;4.03;;;9.40;99.90;;;;;;5014285;28;20389;-72
2023/09/14 02:14:26;;;;;;;13.63;3.83;;;9.40;99.90;;;;;;5014174;28;20046;-73
2023/09/14 02:16:52;;;;;;;11.90;3.85;;;9.40;99.90;;;;;;5014738;28;20038;-72
2023/09/14 02:19:17;;;;;;;16.23;3.90;;;9.30;99.90;;;;;;5012848;28;20432;-72
2023/09/14 02:21:43;;;;;;;13.48;3.33;;;9.30;99.90;;;;;;4996388;28;20048;-72
2023/09/14 02:24:09;;;;;;;13.32;3.75;;;9.30;99.90;;;;;;4996624;28;20046;-73
2023/09/14 02:26:35;;;;;;;14.52;3.65;;;9.40;99.90;;;;;;5014078;28;20046;-72
2023/09/14 02:29:00;;;;;;;14.73;4.00;;;9.30;99.90;;;;;;5014145;28;20052;-74
2023/09/14 02:31:26;;;;;;;20.50;4.38;;;9.40;99.90;;;;;;4996554;28;20133;-71
2023/09/14 02:33:52;;;;;;;16.15;3.80;;;9.30;99.90;;;;;;5012763;28;20049;-73
2023/09/14 02:36:17;;;;;;;18.67;4.20;;;9.20;99.90;;;;;;5012812;28;20038;-72
2023/09/14 02:38:44;;;;;;;15.52;3.90;;;9.20;99.90;;;;;;5013897;28;20131;-72
2023/09/14 02:41:10;;;;;;;16.73;4.07;;;9.20;99.90;;;;;;5013563;28;20077;-71
2023/09/14 02:43:35;;;;;;;12.63;3.55;;;9.20;99.90;;;;;;5013540;28;20039;-72
2023/09/14 02:46:02;;;;;;;14.02;3.35;;;;;;;;;;4996499;28;20083;-72
2023/09/14 02:48:28;;;;;;;18.42;3.83;;;;;;;;;;5013881;28;20045;-73
2023/09/14 02:50:54;;;;;;;15.63;3.47;;;;;;;;;;4980474;28;20044;-73
2023/09/14 02:53:20;;;;;;;22.08;4.70;;;;;;;;;;5012572;28;20061;-72
2023/09/14 02:55:46;;;;;;;13.90;3.67;;;;;;;;;;5013681;28;20045;-72
2023/09/14 02:58:12;;;;;;;11.65;3.05;;;;;;;;;;5016479;28;20445;-72
2023/09/14 03:00:40;;;;;;;13.38;3.28;;;;;;;;;;5017701;28;20058;-72
2023/09/14 03:03:11;;;;;;;17.20;3.42;;;9.10;99.90;;;;;;5000546;28;20108;-72
2023/09/14 03:05:37;;;;;;;19.67;3.83;;;9.30;99.90;;;;;;5016439;28;20355;-71
2023/09/14 03:08:03;;;;;;;19.08;4.15;;;;;;;;;;5018299;28;20104;-72
2023/09/14 03:10:29;;;;;;;16.55;4.50;;;;;;;;;;5017429;28;20042;-71
2023/09/14 03:12:55;;;;;;;16.35;4.13;;;9.00;99.90;;;;;;5000766;28;20042;-72
2023/09/14 03:15:21;;;;;;;18.60;3.90;;;9.20;99.90;;;;;;5016343;28;20109;-72
2023/09/14 03:17:48;;;;;;;22.73;3.88;;;;;;;;;;5017370;28;20045;-71
2023/09/14 03:20:14;;;;;;;17.20;3.85;;;;;;;;;;5017246;28;20104;-72
2023/09/14 03:22:41;;;;;;;;;;;;;;;;;;5018278;28;20046;-72
2023/09/14 03:25:08;;;;;;;12.48;3.47;;;;;;;;;;5017247;28;19917;-73
2023/09/14 03:27:34;;;;;;;15.65;3.40;;;;;;;;;;5017072;28;20054;-71
2023/09/14 03:30:00;;;;;;;17.48;3.38;;;;;;;;;;5016722;28;20470;-72
2023/09/14 03:32:26;;;;;;;11.65;3.28;;;;;;;;;;5016215;28;20053;-72
2023/09/14 03:34:52;;;;;;;12.63;3.45;;;;;;;;;;5016832;28;20061;-71
2023/09/14 03:37:18;;;;;;;11.07;3.85;;;;;;;;;;5016872;28;20048;-73
2023/09/14 03:39:45;;;;;;;19.58;3.65;;;;;;;;;;4999350;28;20133;-72
2023/09/14 03:42:12;;;;;;;17.90;3.63;;;;;;;;;;5015770;28;20050;-71
2023/09/14 03:44:38;;;;;;;13.93;3.25;;;;;;;;;;5015600;28;20518;-72
2023/09/14 03:47:04;;;;;;;11.13;3.10;;;;;;;;;;5017258;28;20045;-71
2023/09/14 03:49:30;;;;;;;14.43;3.30;;;;;;;;;;4999065;28;20042;-72
2023/09/14 03:51:56;;;;;;;12.77;3.20;;;;;;;;;;5016687;28;20037;-71
2023/09/14 03:54:23;;;;;;;16.30;3.03;;;;;;;;;;4983216;28;20052;-73
2023/09/14 03:56:49;;;;;;;12.83;3.43;;;;;;;;;;5016083;28;20049;-72
2023/09/14 03:59:15;;;;;;;15.40;3.70;;;;;;;;;;5016602;28;20107;-72
2023/09/14 04:01:41;;;;;;;11.60;3.00;;;8.90;99.90;;;;;;4998487;28;20137;-71
2023/09/14 04:04:07;;;;;;;17.08;3.13;;;;;;;;;;4998871;28;20085;-72
2023/09/14 04:06:33;;;;;;;14.68;3.60;;;;;;;;;;5015079;28;20042;-72
2023/09/14 04:08:59;;;;;;;15.88;4.55;;;;;;;;;;5014617;28;20437;-72
2023/09/14 04:11:25;;;;;;;12.85;2.80;;;;;;;;;;5015207;28;20087;-71
2023/09/14 04:13:51;;;;;;;10.23;3.15;;;;;;;;;;5016601;28;20095;-71
2023/09/14 04:16:17;;;;;;;14.55;3.30;;;;;;;;;;5017967;28;20053;-71
2023/09/14 04:18:44;;;;;;;17.02;3.80;;;;;;;;;;5018464;28;20416;-72
2023/09/14 04:21:10;;;;;;;13.88;3.13;;;;;;;;;;5016575;28;20386;-71
2023/09/14 04:23:36;;;;;;;23.88;3.25;;;;;;;;;;5016327;28;20050;-72
2023/09/14 04:26:03;;;;;;;10.93;2.45;;;;;;;;;;5015647;28;20046;-72
2023/09/14 04:28:30;;;;;;;9.02;2.85;;;;;;;;;;4999010;28;20046;-72
2023/09/14 04:31:01;;;;;;;;;;;;;;;;;;5016461;28;20069;-73
2023/09/14 04:33:28;;;;;;;11.13;2.60;;;8.70;99.90;;;;;;5015689;28;20007;-72
2023/09/14 04:35:57;;;;;;;9.90;2.58;;;;;;;;;;5014587;28;20045;-71
2023/09/14 04:38:23;;;;;;;11.43;2.88;;;;;;;;;;5015351;28;20048;-72
2023/09/14 04:40:49;;;;;;;11.20;3.08;;;;;;;;;;5016188;28;20096;-72
2023/09/14 04:43:15;;;;;;;11.88;3.13;;;;;;;;;;4998387;28;20042;-71
2023/09/14 04:45:41;;;;;;;20.85;5.57;;;;;;;;;;5014379;28;20112;-71
2023/09/14 04:48:08;;;;;;;15.50;3.92;;;;;;;;;;5015119;28;20077;-72
2023/09/14 04:50:34;;;;;;;12.27;3.08;;;;;;;;;;5015592;28;20056;-71
2023/09/14 04:53:00;;;;;;;13.48;2.92;;;;;;;;;;5014342;28;20041;-71
2023/09/14 04:55:26;;;;;;;20.63;3.88;;;;;;;;;;5015478;28;20088;-72
2023/09/14 04:57:56;;;;;;;11.53;3.70;;;;;;;;;;5016285;28;20073;-71
2023/09/14 05:00:24;;;;;;;18.63;4.03;;;;;;;;;;5014590;28;20076;-73
2023/09/14 05:02:55;;;;;;;14.18;3.20;;;;;;;;;;4997950;28;20042;-73
2023/09/14 05:05:21;;;;;;;12.45;3.40;;;;;;;;;;4998273;28;20446;-76
2023/09/14 05:07:47;;;;;;;16.30;3.72;;;;;;;;;;5015119;28;20191;-75
2023/09/14 05:10:13;;;;;;;11.30;3.03;;;;;;;;;;5014784;28;20171;-76
2023/09/14 05:12:39;;;;;;;14.18;3.33;;;;;;;;;;5015161;28;20041;-76
2023/09/14 05:15:06;;;;;;;14.30;3.67;;;;;;;;;;5015149;28;20466;-75
2023/09/14 05:17:32;;;;;;;16.53;3.43;;;;;;;;;;5013870;28;20056;-75
2023/09/14 05:19:58;;;;;;;13.10;3.55;;;;;;;;;;5013969;28;20295;-76
2023/09/14 05:22:25;;;;;;;14.25;3.30;;;;;;;;;;5013513;28;20033;-76
2023/09/14 05:24:51;;;;;;;;;;;;;;;;;;4998164;28;20051;-76
2023/09/14 05:27:17;;;;;;;15.30;3.50;;;;;;;;;;5015056;28;19917;-75
2023/09/14 05:29:44;;;;;;;17.50;3.88;;;;;;;;;;5014469;28;20482;-76
2023/09/14 05:32:10;;;;;;;;;;;;;;;;;;5015319;28;20081;-76
2023/09/14 05:34:37;;;;;;;13.80;3.37;;;;;;;;;;5014497;28;19918;-75
2023/09/14 05:37:03;;;;;;;11.00;2.88;;;;;;;;;;5014739;28;20629;-76
2023/09/14 05:39:29;;;;;;;10.23;2.88;;;;;;;;;;5014528;28;20088;-75
2023/09/14 05:41:55;;;;;;;16.83;3.80;;;;;;;;;;5014878;28;20033;-76
2023/09/14 05:44:21;;;;;;;11.30;3.55;;;;;;;;;;5013521;28;20080;-77
2023/09/14 05:46:48;;;;;;;12.57;2.65;;;;;;;;;;5014649;28;20049;-76
2023/09/14 05:49:14;;;;;;;15.55;3.15;;;;;;;;;;5013503;28;20046;-75
2023/09/14 05:51:40;;;;;;;14.27;3.00;;;;;;;;;;5014560;28;20049;-76
2023/09/14 05:54:06;;;;;;;14.40;3.80;;;;;;;;;;5014059;28;20077;-75
2023/09/14 05:56:33;;;;;;;18.38;4.60;;;;;;;;;;5013287;28;20038;-76
2023/09/14 05:58:59;;;;;;;17.92;4.38;;;;;;;;;;5013229;28;20046;-77
2023/09/14 06:01:25;;;;;;;12.68;4.32;;;;;;;;;;5013937;28;20057;-75
2023/09/14 06:03:51;;;;;;;17.77;3.78;;;;;;;;;;5014169;28;20049;-77
2023/09/14 06:06:17;;;;;;;18.40;4.05;;;;;;;;;;5014548;28;20067;-77
2023/09/14 06:08:43;;;;;;;16.15;4.10;;;;;;;;;;5014874;28;20096;-77
2023/09/14 06:11:10;;;;;;;13.88;3.88;;;;;;;;;;5014153;28;20103;-75
2023/09/14 06:13:36;;;;;;;14.45;4.30;;;;;;;;;;5014156;28;20115;-75
2023/09/14 06:16:02;;;;;;;17.63;4.00;;;;;;;;;;5014016;28;20044;-76
2023/09/14 06:18:28;;;;;;;16.00;5.47;;;;;;;;;;4996567;28;20085;-76
2023/09/14 06:20:54;;;;;;;15.18;4.63;;;;;;;;;;5013966;28;20077;-76
2023/09/14 06:23:20;;;;;;;13.30;4.30;;;;;;;;;;5012724;28;20044;-76
2023/09/14 06:25:47;;;;;;;14.75;4.28;;;;;;;;;;5013919;28;20046;-76
2023/09/14 06:28:13;;;;;;;12.00;4.47;;;;;;;;;;5013976;28;20054;-77
2023/09/14 06:30:39;;;;;;;17.45;4.68;;;;;;;;;;5013790;28;20041;-76
2023/09/14 06:33:05;;;;;;;20.73;4.80;;;;;;;;;;4997237;28;20181;-76
2023/09/14 06:35:31;;;;;;;18.77;6.50;;;;;;;;;;5013903;28;20136;-76
2023/09/14 06:37:57;;;;;;;17.27;6.40;;;;;;;;;;5014064;28;20041;-77
2023/09/14 06:40:24;;;;;;;17.95;6.40;;;;;;;;;;5013854;28;20045;-77
2023/09/14 06:42:51;;;;;;;23.20;8.43;;;;;;;;;;5013742;28;20065;-77
2023/09/14 06:45:17;;;;;;;29.55;11.25;;;;;;;;;;5013427;28;20143;-77
2023/09/14 06:47:43;;;;;;;28.30;11.60;;;;;;;;;;5013764;28;20085;-76
2023/09/14 06:50:09;;;;;;;30.83;12.57;;;;;;;;;;4996470;28;20361;-76
2023/09/14 06:52:35;;;;;;;33.88;11.98;;;;;;;;;;5013989;28;20074;-76
2023/09/14 06:55:02;;;;;;;31.85;11.65;;;;;;;;;;4996824;28;20044;-76
2023/09/14 06:57:29;;;;;;;31.17;12.73;;;;;;;;;;5013656;28;20099;-75
2023/09/14 06:59:55;;;;;;;29.85;12.73;;;;;;;;;;5014111;28;20046;-75
2023/09/14 07:02:21;;;;;;;29.42;11.77;;;;;;;;;;5013960;28;20072;-76
2023/09/14 07:04:47;;;;;;;25.65;11.55;;;;;;;;;;5013522;28;20115;-76
2023/09/14 07:07:13;;;;;;;29.10;10.55;;;;;;;;;;5013473;28;20042;-77
2023/09/14 07:09:39;;;;;;;28.83;10.60;;;;;;;;;;5014304;28;20073;-76
2023/09/14 07:12:06;;;;;;;29.80;10.90;;;;;;;;;;5013463;28;20038;-76
2023/09/14 07:14:32;;;;;;;27.05;10.50;;;;;;;;;;5013532;28;20382;-76
2023/09/14 07:16:58;;;;;;;25.80;10.20;;;;;;;;;;5013072;28;20108;-76
2023/09/14 07:19:26;;;;;;;26.00;9.32;;;;;;;;;;5013440;28;20045;-75
2023/09/14 07:21:54;;;;;;;29.85;9.32;;;;;;;;;;5013353;28;20397;-76
2023/09/14 07:24:21;;;;;;;27.35;8.38;;;;;;;;;;5012227;28;20049;-76
2023/09/14 07:26:48;;;;;;;28.90;9.27;;;;;;;;;;5014088;28;20119;-75
2023/09/14 07:29:15;;;;;;;23.10;8.00;;;;;;;;;;4996095;28;20046;-75
2023/09/14 07:31:41;;;;;;;24.25;8.20;;;;;;;;;;5012167;28;20045;-75
2023/09/14 07:34:07;;;;;;;32.30;7.43;;;;;;;;;;5012320;28;20054;-76
2023/09/14 07:36:33;;;;;;;24.45;7.00;;;;;;;;;;5013394;28;20091;-75
2023/09/14 07:38:59;;;;;;;22.45;7.03;;;;;;;;;;5013159;28;20042;-76
2023/09/14 07:41:26;;;;;;;19.05;6.55;;;;;;;;;;5013307;28;20042;-75
2023/09/14 07:43:52;;;;;;;30.33;7.32;;;;;;;;;;5013930;28;20045;-77
2023/09/14 07:46:18;;;;;;;27.40;7.93;;;;;;;;;;5015693;28;20041;-76
2023/09/14 07:48:44;;;;;;;20.88;7.20;;;;;;;;;;4999858;28;20088;-75
2023/09/14 07:51:10;;;;;;;28.45;6.80;;;;;;;;;;5015684;28;20045;-75
2023/09/14 07:53:37;;;;;;;19.80;6.65;;;;;;;;;;5015475;28;20056;-75
2023/09/14 07:56:03;;;;;;;19.80;6.70;;;;;;;;;;5015758;28;20093;-76
2023/09/14 07:58:29;;;;;;;26.75;5.75;;;;;;;;;;5016685;28;20042;-74
2023/09/14 08:00:55;;;;;;;17.02;5.88;;;;;;;;;;5016432;28;20097;-75
2023/09/14 08:03:22;;;;;;;20.25;6.20;;;;;;;;;;5016265;28;20089;-76
2023/09/14 08:05:50;;;;;;;23.42;5.90;;;;;;;;;;5016716;28;20386;-75
2023/09/14 08:08:17;;;;;;;24.08;6.18;;;;;;;;;;5015651;28;20053;-75
2023/09/14 08:10:48;;;;;;;33.07;6.93;;;;;;;;;;5015154;28;20041;-76
2023/09/14 08:13:15;;;;;;;25.52;6.13;;;;;;;;;;5015246;28;20050;-76
2023/09/14 08:15:41;;;;;;;26.08;5.82;;;;;;;;;;5016187;28;20052;-75
2023/09/14 08:18:07;;;;;;;31.95;4.80;;;;;;;;;;5014952;28;20044;-75
2023/09/14 08:20:37;;;;;;;26.17;4.45;;;;;;;;;;5015803;28;20041;-74
2023/09/14 08:23:04;;;;;;;32.47;4.10;;;;;;;;;;5016565;28;20038;-76
2023/09/14 08:25:30;;;;;;;19.67;4.47;;;;;;;;;;5016075;28;20049;-76
2023/09/14 08:27:56;;;;;;;27.88;4.45;;;;;;;;;;5016057;28;20061;-75
2023/09/14 08:30:22;;;;;;;20.70;4.00;;;;;;;;;;5015965;28;20041;-74
2023/09/14 08:32:49;;;;;;;28.20;3.50;;;;;;;;;;4999357;28;20045;-75
2023/09/14 08:35:24;;;;;;;19.70;4.32;;;;;;;;;;5015819;28;20042;-75
2023/09/14 08:37:52;;;;;;;19.80;3.90;;;;;;;;;;5014810;28;20094;-74
2023/09/14 08:40:19;;;;;;;28.33;4.50;;;;;;;;;;5016671;28;20046;-76
2023/09/14 08:42:48;;;;;;;19.00;3.80;;;;;;;;;;5015672;28;20034;-74
2023/09/14 08:45:15;;;;;;;15.27;3.38;;;;;;;;;;5015640;28;20482;-74
2023/09/14 08:47:42;;;;;;;19.00;3.60;;;;;;;;;;5014464;28;20049;-74
2023/09/14 08:50:13;;;;;;;20.25;3.22;;;;;;;;;;5014430;28;20045;-74
2023/09/14 08:52:41;;;;;;;14.38;2.83;;;;;;;;;;5015806;28;20088;-74
2023/09/14 08:55:09;;;;;;;22.05;3.97;;;;;;;;;;5015195;28;20045;-74
2023/09/14 08:57:36;;;;;;;27.92;3.40;;;;;;;;;;5015372;28;20064;-75
2023/09/14 09:00:14;;;;;;;40.45;4.82;;;15.20;99.90;;;;;;5014169;28;20052;-74
2023/09/14 09:02:43;;;;;;;21.20;3.15;;;15.30;99.90;;;;;;5014472;28;20547;-74
2023/09/14 09:05:10;;;;;;;13.85;2.63;;;15.30;99.90;;;;;;4998070;28;20038;-75
2023/09/14 09:07:38;;;;;;;17.77;2.35;;;15.30;99.90;;;;;;5015148;28;20046;-75
2023/09/14 09:10:05;;;;;;;13.82;2.35;;;15.40;99.90;;;;;;4998095;28;20482;-73
2023/09/14 09:12:31;;;;;;;18.30;2.75;;;15.40;99.90;;;;;;4998054;28;20049;-74
2023/09/14 09:15:00;;;;;;;15.68;2.97;;;15.40;99.90;;;;;;5015460;28;20041;-75
2023/09/14 09:17:26;;;;;;;17.20;2.83;;;15.50;99.90;;;;;;5015776;28;20042;-74
2023/09/14 09:19:53;;;;;;;9.98;2.38;;;15.50;99.90;;;;;;4998199;28;20044;-73
2023/09/14 09:22:19;;;;;;;19.25;2.97;;;15.60;99.90;;;;;;5014238;28;20038;-75
2023/09/14 09:24:45;;;;;;;19.10;2.30;;;15.70;99.90;;;;;;4997715;28;20049;-74
2023/09/14 09:27:27;;;;;;;18.65;2.85;;;15.70;99.90;;;;;;5014118;28;20046;-76
2023/09/14 09:30:03;;;;;;;17.45;2.45;;;15.80;99.90;;;;;;5015013;28;20038;-74
2023/09/14 09:32:29;;;;;;;19.65;2.70;;;15.80;99.90;;;;;;5015670;28;20187;-73
2023/09/14 09:34:54;;;;;;;14.43;1.90;;;15.90;99.90;;;;;;5014174;28;20081;-74
2023/09/14 09:37:23;;;;;;;12.05;2.63;;;16.00;99.90;;;;;;5015890;28;20073;-74
2023/09/14 09:39:49;;;;;;;13.88;2.65;;;16.10;99.90;;;;;;5015763;28;20042;-73
2023/09/14 09:42:19;;;;;;;20.75;2.90;;;16.10;99.90;;;;;;5017071;28;20347;-75
2023/09/14 09:44:45;;;;;;;16.38;2.80;;;16.10;99.90;;;;;;5015885;28;20516;-73
2023/09/14 09:47:14;;;;;;;14.27;2.70;;;16.10;99.90;;;;;;5015860;28;20041;-73
2023/09/14 09:49:40;;;;;;;16.77;2.90;;;16.10;99.90;;;;;;5014637;28;20394;-74
2023/09/14 09:52:10;;;;;;;18.88;3.67;;;16.20;99.90;;;;;;5014710;28;20099;-75
2023/09/14 09:54:36;;;;;;;20.00;2.70;;;16.30;99.90;;;;;;5016504;28;20058;-73
2023/09/14 09:57:04;;;;;;;23.17;3.17;;;16.30;99.90;;;;;;5015240;28;20134;-74
2023/09/14 09:59:31;;;;;;;21.95;3.45;;;16.40;99.90;;;;;;4998291;28;20110;-74
2023/09/14 10:01:57;;;;;;;24.02;3.10;;;16.40;99.90;;;;;;5014296;28;20049;-73
2023/09/14 10:04:28;;;;;;;18.08;3.72;;;16.50;99.90;;;;;;4997815;28;20056;-73
2023/09/14 10:06:59;;;;;;;14.63;3.10;;;16.50;99.90;;;;;;5013429;28;20119;-74
2023/09/14 10:09:26;;;;;;;23.27;3.80;;;16.50;99.90;;;;;;5013513;28;20188;-75
2023/09/14 10:11:53;;;;;;;;;;;16.60;99.90;;;;;;4997178;28;20042;-75
2023/09/14 10:14:23;;;;;;;12.43;3.03;;;16.60;99.90;;;;;;5014197;28;19924;-72
2023/09/14 10:16:51;;;;;;;19.33;3.45;;;16.70;99.90;;;;;;5014116;28;20048;-71
2023/09/14 10:19:20;;;;;;;20.98;2.92;;;16.70;99.90;;;;;;5013775;28;20520;-73
2023/09/14 10:21:46;;;;;;;20.65;3.05;;;16.60;99.90;;;;;;5014022;28;20041;-74
2023/09/14 10:24:13;;;;;;;;;;;16.70;99.90;;;;;;5015225;28;20068;-74
2023/09/14 10:26:40;;;;;;;18.20;2.72;;;16.70;99.90;;;;;;5029294;28;19949;-74
2023/09/14 10:29:09;;;;;;;14.70;3.05;;;16.90;99.90;;;;;;5013040;28;20057;-74
2023/09/14 10:31:35;;;;;;;18.63;3.45;;;16.80;99.90;;;;;;5013879;28;20045;-73
2023/09/14 10:34:04;;;;;;;15.98;2.75;;;16.90;99.90;;;;;;5014434;28;20106;-75
2023/09/14 10:36:32;;;;;;;16.13;2.90;;;16.90;99.90;;;;;;5014326;28;20049;-72
2023/09/14 10:38:59;;;;;;;20.05;3.45;;;17.10;99.90;;;;;;4996858;28;20132;-73
2023/09/14 10:41:25;;;;;;;19.83;3.47;;;17.20;99.90;;;;;;5013672;28;20081;-74
2023/09/14 10:43:52;;;;;;;24.40;3.25;;;;;;;;;;5012285;28;20088;-74
2023/09/14 10:46:19;;;;;;;20.80;3.08;;;;;;;;;;5013102;28;20533;-73
2023/09/14 10:48:46;;;;;;;14.70;2.88;;;;;;;;;;5012538;28;20045;-72
2023/09/14 10:51:12;;;;;;;;;;;;;;;;;;5014162;28;20049;-73
2023/09/14 10:53:41;;;;;;;17.88;3.40;;;17.40;99.90;;;;;;5013634;28;20258;-73
2023/09/14 10:56:21;;;;;;;24.15;3.08;;;17.60;99.90;;;;;;5013657;28;20042;-72
2023/09/14 10:58:51;;;;;;;19.08;3.42;;;17.60;99.90;;;;;;5014075;28;20053;-73
2023/09/14 11:01:23;;;;;;;21.13;3.65;;;;;;;;;;5013175;28;20093;-73
2023/09/14 11:04:08;;;;;;;23.08;3.33;;;;;;;;;;4996641;28;20044;-75
2023/09/14 11:06:48;;;;;;;19.88;3.80;;;;;;;;;;5012308;28;20074;-75
2023/09/14 11:09:15;;;;;;;25.52;4.00;;;;;;;;;;4996227;28;20041;-74
2023/09/14 11:11:42;;;;;;;;;;;;;;;;;;5013052;28;20424;-75
2023/09/14 11:14:09;;;;;;;16.42;3.78;;;;;;;;;;5013368;28;19917;-74
2023/09/14 11:16:42;;;;;;;27.17;4.28;;;;;;;;;;5013509;28;20081;-74
2023/09/14 11:19:08;;;;;;;20.20;4.00;;;;;;;;;;4999816;28;20045;-76
2023/09/14 11:21:34;;;;;;;19.13;3.80;;;;;;;;;;5016088;28;20052;-74
2023/09/14 11:24:02;;;;;;;16.93;3.37;;;;;;;;;;5017799;28;20112;-75
2023/09/14 11:26:31;;;;;;;23.83;3.95;;;;;;;;;;5016061;28;20285;-76
2023/09/14 11:28:58;;;;;;;20.67;3.90;;;;;;;;;;5017167;28;20038;-74
2023/09/14 11:31:33;;;;;;;20.67;3.58;;;;;;;;;;5016797;28;20034;-73
2023/09/14 11:34:05;;;;;;;18.00;3.63;;;;;;;;;;5017028;28;20056;-73
2023/09/14 11:36:32;;;;;;;22.20;4.32;;;;;;;;;;5016285;28;20052;-75
2023/09/14 11:38:59;;;;;;;24.42;4.35;;;;;;;;;;5015451;28;20104;-74
2023/09/14 11:41:38;;;;;;;15.60;3.45;;;;;;;;;;4984263;28;20132;-74
2023/09/14 11:44:04;;;;;;;20.95;3.70;;;;;;;;;;5016865;28;20096;-72
2023/09/14 11:46:32;;;;;;;19.02;4.28;;;;;;;;;;5015401;28;20046;-77
2023/09/14 11:48:58;;;;;;;18.73;3.80;;;;;;;;;;5016513;28;20547;-73
2023/09/14 11:51:25;;;;;;;22.95;4.63;;;;;;;;;;5016745;28;20041;-73
2023/09/14 11:53:55;;;;;;;22.40;3.95;;;;;;;;;;4983189;28;20053;-74
2023/09/14 11:56:21;;;;;;;20.35;3.92;;;;;;;;;;5015615;28;20057;-73
2023/09/14 11:58:47;;;;;;;18.30;4.53;;;;;;;;;;5016321;28;20140;-74
2023/09/14 12:01:13;;;;;;;26.60;5.00;;;;;;;;;;5016747;28;20049;-73
2023/09/14 12:03:39;;;;;;;23.88;4.38;;;;;;;;;;5016853;28;20273;-73
2023/09/14 12:06:06;;;;;;;20.23;4.75;;;;;;;;;;5016473;28;20042;-72
2023/09/14 12:08:32;;;;;;;23.13;3.78;;;;;;;;;;5015152;28;20041;-74
2023/09/14 12:10:58;;;;;;;17.95;3.90;;;;;;;;;;5016330;28;20133;-74
2023/09/14 12:13:24;;;;;;;26.17;4.20;;;;;;;;;;5016221;28;20045;-74
2023/09/14 12:15:59;;;;;;;24.17;4.17;;;;;;;;;;5015824;28;20823;-71
2023/09/14 12:18:37;;;;;;;25.33;4.18;;;;;;;;;;5016808;28;20100;-74
2023/09/14 12:21:04;;;;;;;24.27;3.80;;;;;;;;;;5016124;28;20038;-76
2023/09/14 12:23:32;;;;;;;;;;;;;;;;;;4999156;28;20449;-74
2023/09/14 12:25:58;;;;;;;23.70;4.40;;;;;;;;;;5016091;28;19917;-73
2023/09/14 12:28:25;;;;;;;26.02;4.25;;;;;;;;;;5015905;28;20045;-74
2023/09/14 12:30:51;;;;;;;20.83;4.05;;;;;;;;;;5015522;28;20085;-74
2023/09/14 12:33:17;;;;;;;19.80;4.30;;;;;;;;;;5016044;28;20056;-73
2023/09/14 12:35:44;;;;;;;22.95;4.05;;;;;;;;;;5014380;28;20520;-75
2023/09/14 12:38:10;;;;;;;19.55;4.20;;;;;;;;;;5015888;28;20147;-74
2023/09/14 12:40:37;;;;;;;26.25;4.30;;;;;;;;;;4998577;28;20046;-75
2023/09/14 12:43:04;;;;;;;24.63;4.75;;;;;;;;;;5014415;28;20048;-74
2023/09/14 12:45:33;;;;;;;19.25;3.95;;;;;;;;;;5015449;28;20091;-74
2023/09/14 12:48:12;;;;;;;17.20;3.60;;;;;;;;;;5015618;28;20042;-75
2023/09/14 12:50:38;;;;;;;19.70;4.38;;;;;;;;;;5015576;28;20103;-73
2023/09/14 12:53:08;;;;;;;23.02;3.92;;;;;;;;;;4998284;28;20048;-75
2023/09/14 12:55:39;;;;;;;19.52;3.80;;;;;;;;;;5016217;28;20038;-73
2023/09/14 12:58:05;;;;;;;20.27;3.67;;;;;;;;;;5015908;28;20429;-73
2023/09/14 13:00:34;;;;;;;15.98;3.50;;;;;;;;;;5016173;28;20046;-75
2023/09/14 13:03:00;;;;;;;19.52;3.58;;;;;;;;;;5013980;28;20046;-74
2023/09/14 13:05:27;;;;;;;16.08;3.70;;;;;;;;;;4998284;28;20451;-75
2023/09/14 13:07:54;;;;;;;19.00;3.33;;;;;;;;;;4997605;28;20052;-75
2023/09/14 13:10:22;;;;;;;18.42;3.75;;;;;;;;;;5015998;28;20084;-74
2023/09/14 13:12:52;;;;;;;29.20;3.85;;;;;;;;;;5015457;28;20088;-75
2023/09/14 13:15:20;;;;;;;18.00;3.65;;;;;;;;;;5015116;28;20049;-76
2023/09/14 13:17:46;;;;;;;16.15;3.38;;;;;;;;;;5015103;28;20129;-74
2023/09/14 13:20:12;;;;;;;18.75;3.47;;;;;;;;;;5014019;28;20049;-74
2023/09/14 13:22:38;;;;;;;21.35;3.65;;;;;;;;;;5014895;28;20060;-74
2023/09/14 13:25:04;;;;;;;17.92;3.35;;;;;;;;;;5014810;28;20179;-75
2023/09/14 13:27:34;;;;;;;20.40;3.63;;;;;;;;;;5014280;28;20100;-74
2023/09/14 13:30:01;;;;;;;14.98;3.60;;;;;;;;;;5014718;28;20052;-75
2023/09/14 13:32:28;;;;;;;17.27;3.22;;;;;;;;;;5013626;28;20208;-74
2023/09/14 13:34:54;;;;;;;13.60;3.30;;;;;;;;;;5013612;28;20056;-75
2023/09/14 13:37:20;;;;;;;19.83;3.53;;;;;;;;;;5015271;28;20142;-74
2023/09/14 13:39:46;;;;;;;21.05;3.53;;;;;;;;;;5014994;28;20041;-80
2023/09/14 13:42:12;;;;;;;23.77;3.88;;;;;;;;;;5013117;28;20125;-74
2023/09/14 13:44:39;;;;;;;19.58;3.35;;;;;;;;;;5014472;28;20073;-75
2023/09/14 13:47:05;;;;;;;16.77;3.22;;;;;;;;;;5014556;28;20042;-74
2023/09/14 13:49:31;;;;;;;25.83;3.70;;;;;;;;;;5014318;28;20509;-74
2023/09/14 13:51:57;;;;;;;22.20;4.10;;;;;;;;;;5015246;28;20041;-74